createdAt,value
2022-08-17T00:01:26.260Z,9.63
2022-08-17T00:03:54.289Z,11.10
2022-08-17T00:06:24.037Z,11.40
2022-08-17T00:08:53.851Z,11.18
2022-08-17T00:11:27.983Z,11.18
2022-08-17T00:14:05.690Z,11.75
2022-08-17T00:16:50.510Z,10.25
2022-08-17T00:19:25.051Z,12.52
2022-08-17T00:22:31.004Z,13.93
2022-08-17T00:24:40.614Z,12.80
2022-08-17T00:27:06.959Z,11.63
2022-08-17T00:29:33.369Z,12.10
2022-08-17T00:32:01.612Z,11.90
2022-08-17T00:34:47.939Z,12.23
2022-08-17T00:37:14.271Z,11.95
2022-08-17T00:39:40.632Z,11.82
2022-08-17T00:42:18.833Z,11.73
2022-08-17T00:44:45.350Z,11.90
2022-08-17T00:47:13.299Z,11.40
2022-08-17T00:49:39.734Z,11.88
2022-08-17T00:52:14.232Z,11.07
2022-08-17T00:54:43.159Z,12.07
2022-08-17T00:57:31.550Z,11.65
2022-08-17T01:00:04.008Z,13.48
2022-08-17T01:02:40.445Z,11.38
2022-08-17T01:05:16.238Z,11.90
2022-08-17T01:07:47.561Z,10.32
2022-08-17T01:11:00.476Z,10.57
2022-08-17T01:13:06.611Z,10.98
2022-08-17T01:15:37.208Z,10.90
2022-08-17T01:18:06.485Z,11.05
2022-08-17T01:20:48.094Z,12.55
2022-08-17T01:23:16.435Z,11.80
2022-08-17T01:25:51.105Z,11.38
2022-08-17T01:28:53.227Z,11.27
2022-08-17T01:31:07.669Z,11.68
2022-08-17T01:33:34.079Z,11.10
2022-08-17T01:36:00.409Z,10.82
2022-08-17T01:38:27.480Z,11.40
2022-08-17T01:40:58.210Z,10.98
2022-08-17T01:43:29.818Z,12.23
2022-08-17T01:46:03.024Z,11.15
2022-08-17T01:48:33.095Z,11.35
2022-08-17T01:51:00.006Z,11.10
2022-08-17T01:53:31.612Z,11.75
2022-08-17T01:56:05.198Z,11.15
2022-08-17T01:58:32.998Z,11.55
2022-08-17T02:01:00.987Z,10.68
2022-08-17T02:03:28.395Z,10.65
2022-08-17T02:05:54.889Z,11.82
2022-08-17T02:08:36.881Z,11.32
2022-08-17T02:11:12.117Z,12.55
2022-08-17T02:13:38.799Z,11.98
2022-08-17T02:16:05.174Z,10.80
2022-08-17T02:18:31.514Z,12.05
2022-08-17T02:20:58.043Z,11.88
2022-08-17T02:23:26.665Z,11.40
2022-08-17T02:25:55.309Z,11.82
2022-08-17T02:28:21.633Z,12.45
2022-08-17T02:31:02.583Z,13.23
2022-08-17T02:33:41.840Z,11.98
2022-08-17T02:36:10.972Z,12.35
2022-08-17T02:38:38.125Z,13.27
2022-08-17T02:41:04.963Z,13.00
2022-08-17T02:43:31.499Z,13.00
2022-08-17T02:45:57.952Z,12.80
2022-08-17T02:48:31.694Z,13.77
2022-08-17T02:50:58.832Z,13.25
2022-08-17T02:53:25.692Z,12.25
2022-08-17T02:55:53.022Z,12.90
2022-08-17T02:58:35.708Z,13.60
2022-08-17T03:01:05.309Z,14.57
2022-08-17T03:03:31.820Z,14.13
2022-08-17T03:05:58.177Z,14.02
2022-08-17T03:08:24.590Z,14.18
2022-08-17T03:10:51.103Z,14.25
2022-08-17T03:13:17.503Z,14.45
2022-08-17T03:15:45.371Z,13.40
2022-08-17T03:18:19.320Z,14.32
2022-08-17T03:20:52.710Z,13.98
2022-08-17T03:23:19.040Z,15.05
2022-08-17T03:25:52.989Z,14.45
2022-08-17T03:28:20.706Z,14.35
2022-08-17T03:30:47.075Z,14.60
2022-08-17T03:33:13.503Z,13.85
2022-08-17T03:35:40.698Z,14.23
2022-08-17T03:38:09.616Z,14.70
2022-08-17T03:40:56.878Z,14.25
2022-08-17T03:43:23.108Z,13.43
2022-08-17T03:45:51.272Z,13.40
2022-08-17T03:48:20.418Z,14.07
2022-08-17T03:50:46.738Z,13.75
2022-08-17T03:53:16.668Z,14.43
2022-08-17T03:55:43.120Z,13.60
2022-08-17T03:58:09.462Z,13.52
2022-08-17T04:00:36.559Z,13.48
2022-08-17T04:03:06.120Z,14.20
2022-08-17T04:05:35.294Z,13.77
2022-08-17T04:08:01.638Z,14.15
2022-08-17T04:10:33.979Z,14.98
2022-08-17T04:13:07.747Z,14.00
2022-08-17T04:15:34.074Z,14.52
2022-08-17T04:18:00.519Z,13.93
2022-08-17T04:20:27.806Z,15.65
2022-08-17T04:23:11.999Z,14.10
2022-08-17T04:25:42.879Z,14.68
2022-08-17T04:28:15.884Z,14.30
2022-08-17T04:30:44.401Z,13.73
2022-08-17T04:33:16.071Z,14.10
2022-08-17T04:35:51.127Z,14.07
2022-08-17T04:40:49.021Z,14.23
2022-08-17T04:43:18.642Z,13.13
2022-08-17T04:46:15.833Z,13.75
2022-08-17T04:48:45.825Z,13.25
2022-08-17T04:51:19.280Z,14.95
2022-08-17T04:53:54.364Z,14.18
2022-08-17T04:56:22.431Z,13.40
2022-08-17T04:58:50.945Z,12.80
2022-08-17T05:01:23.390Z,13.40
2022-08-17T05:03:51.006Z,12.85
2022-08-17T05:06:17.337Z,13.38
2022-08-17T05:08:43.707Z,12.63
2022-08-17T05:11:10.087Z,12.85
2022-08-17T05:13:36.554Z,12.15
2022-08-17T05:16:03.856Z,11.27
2022-08-17T05:18:31.126Z,12.05
2022-08-17T05:20:57.906Z,12.60
2022-08-17T05:23:27.500Z,11.90
2022-08-17T05:26:11.625Z,11.87
2022-08-17T05:28:49.011Z,10.45
2022-08-17T05:31:16.762Z,11.10
2022-08-17T05:33:45.196Z,11.45
2022-08-17T05:36:42.111Z,11.68
2022-08-17T05:39:00.664Z,12.02
2022-08-17T05:41:27.000Z,10.88
2022-08-17T05:43:56.345Z,10.43
2022-08-17T05:46:27.012Z,10.75
2022-08-17T05:48:58.287Z,10.57
2022-08-17T05:51:34.956Z,10.38
2022-08-17T05:54:27.634Z,10.00
2022-08-17T05:57:02.961Z,10.18
2022-08-17T05:59:34.962Z,8.48
2022-08-17T06:02:21.502Z,9.50
2022-08-17T06:05:14.998Z,10.18
2022-08-17T06:07:53.562Z,9.77
2022-08-17T06:10:43.577Z,9.40
2022-08-17T06:13:40.942Z,8.57
2022-08-17T06:16:33.776Z,7.75
2022-08-17T06:19:19.652Z,7.40
2022-08-17T06:24:52.279Z,7.28
2022-08-17T06:27:38.643Z,7.50
2022-08-17T06:30:24.260Z,9.77
2022-08-17T06:32:52.056Z,9.85
2022-08-17T06:35:43.850Z,7.32
2022-08-17T06:38:38.883Z,8.95
2022-08-17T06:41:44.113Z,8.93
2022-08-17T06:44:49.957Z,7.40
2022-08-17T06:47:28.305Z,7.55
2022-08-17T06:50:14.233Z,8.10
2022-08-17T06:53:14.562Z,7.60
2022-08-17T06:55:48.637Z,8.85
2022-08-17T06:58:19.902Z,9.00
2022-08-17T07:00:49.186Z,7.88
2022-08-17T07:03:43.558Z,7.60
2022-08-17T07:06:19.474Z,8.68
2022-08-17T07:09:00.986Z,7.00
2022-08-17T07:11:38.188Z,6.70
2022-08-17T07:14:29.993Z,6.70
2022-08-17T07:16:58.714Z,6.85
2022-08-17T07:19:30.912Z,7.03
2022-08-17T07:22:03.682Z,6.47
2022-08-17T07:24:35.505Z,6.40
2022-08-17T07:27:18.482Z,6.38
2022-08-17T07:29:49.816Z,6.35
2022-08-17T07:32:25.702Z,6.05
2022-08-17T07:35:03.646Z,6.28
2022-08-17T07:37:29.987Z,6.35
2022-08-17T07:40:14.881Z,6.28
2022-08-17T07:42:46.756Z,5.93
2022-08-17T07:45:14.905Z,6.53
2022-08-17T07:47:50.721Z,4.97
2022-08-17T07:50:29.676Z,4.78
2022-08-17T07:52:56.016Z,5.50
2022-08-17T07:55:30.042Z,5.38
2022-08-17T07:57:58.426Z,4.93
2022-08-17T08:00:32.761Z,4.80
2022-08-17T08:05:57.496Z,4.88
2022-08-17T08:08:36.505Z,4.15
2022-08-17T08:11:14.199Z,4.53
2022-08-17T08:13:42.600Z,4.03
2022-08-17T08:16:22.093Z,4.00
2022-08-17T08:18:54.750Z,4.00
2022-08-17T08:24:05.392Z,4.35
2022-08-17T08:26:40.494Z,4.10
2022-08-17T08:29:42.238Z,4.18
2022-08-17T08:32:27.339Z,4.22
2022-08-17T08:35:05.228Z,4.55
2022-08-17T08:37:56.675Z,3.85
2022-08-17T08:40:33.327Z,4.57
2022-08-17T08:43:14.175Z,3.90
2022-08-17T08:46:06.651Z,4.10
2022-08-17T08:48:55.682Z,3.95
2022-08-17T08:51:34.846Z,4.10
2022-08-17T08:54:27.067Z,4.75
2022-08-17T08:57:22.400Z,4.05
2022-08-17T09:00:07.622Z,3.83
2022-08-17T09:03:19.622Z,3.67
2022-08-17T09:05:54.989Z,4.40
2022-08-17T09:08:42.202Z,3.60
2022-08-17T09:11:15.864Z,3.78
2022-08-17T09:13:55.484Z,3.97
2022-08-17T09:16:38.570Z,3.60
2022-08-17T09:19:11.531Z,3.90
2022-08-17T09:21:48.036Z,3.42
2022-08-17T09:24:42.787Z,3.72
2022-08-17T09:27:15.601Z,3.40
2022-08-17T09:29:48.469Z,3.38
2022-08-17T09:32:20.444Z,3.45
2022-08-17T09:34:52.942Z,3.70
2022-08-17T09:37:25.567Z,3.10
2022-08-17T09:40:10.730Z,3.55
2022-08-17T09:42:48.653Z,3.40
2022-08-17T09:45:28.030Z,3.38
2022-08-17T09:48:18.099Z,3.00
2022-08-17T09:51:03.439Z,3.50
2022-08-17T09:53:32.586Z,3.58
2022-08-17T09:56:29.679Z,3.15
2022-08-17T09:59:38.240Z,3.75
2022-08-17T10:02:31.938Z,3.42
2022-08-17T10:05:05.989Z,3.67
2022-08-17T10:08:04.677Z,3.50
2022-08-17T10:10:52.385Z,3.22
2022-08-17T10:13:41.028Z,3.15
2022-08-17T10:16:44.072Z,3.65
2022-08-17T10:19:18.289Z,3.10
2022-08-17T10:21:48.920Z,3.60
2022-08-17T10:24:34.006Z,3.00
2022-08-17T10:27:03.300Z,3.20
2022-08-17T10:30:00.351Z,2.92
2022-08-17T10:32:30.309Z,3.15
2022-08-17T10:35:20.651Z,3.03
2022-08-17T10:38:01.219Z,3.20
2022-08-17T10:40:50.102Z,2.95
2022-08-17T10:43:21.478Z,2.78
2022-08-17T10:46:10.341Z,2.97
2022-08-17T10:49:12.714Z,2.78
2022-08-17T10:51:41.064Z,2.85
2022-08-17T10:54:58.563Z,2.60
2022-08-17T10:57:31.227Z,2.53
2022-08-17T10:59:59.368Z,3.15
2022-08-17T11:02:30.612Z,2.90
2022-08-17T11:05:31.708Z,2.65
2022-08-17T11:08:23.211Z,2.97
2022-08-17T11:11:30.218Z,2.90
2022-08-17T11:14:30.682Z,2.65
2022-08-17T11:17:36.817Z,2.50
2022-08-17T11:20:45.513Z,2.78
2022-08-17T11:23:32.704Z,2.85
2022-08-17T11:26:01.840Z,2.72
2022-08-17T11:28:32.009Z,3.00
2022-08-17T11:31:19.694Z,2.40
2022-08-17T11:34:19.297Z,3.28
2022-08-17T11:37:05.698Z,2.72
2022-08-17T11:39:54.296Z,2.70
2022-08-17T11:42:47.520Z,3.03
2022-08-17T11:45:45.829Z,3.13
2022-08-17T11:48:45.930Z,2.80
2022-08-17T11:51:21.341Z,2.95
2022-08-17T11:53:47.626Z,2.40
2022-08-17T11:56:45.101Z,2.53
2022-08-17T11:59:30.361Z,2.47
2022-08-17T12:01:56.794Z,2.60
2022-08-17T12:04:34.940Z,2.30
2022-08-17T12:07:15.182Z,2.75
2022-08-17T12:09:47.172Z,2.67
2022-08-17T12:12:26.351Z,2.42
2022-08-17T12:15:12.048Z,2.30
2022-08-17T12:17:41.613Z,2.55
2022-08-17T12:20:14.450Z,2.45
2022-08-17T12:23:08.980Z,2.60
2022-08-17T12:25:43.912Z,2.67
2022-08-17T12:28:27.093Z,2.60
2022-08-17T12:30:55.502Z,2.70
2022-08-17T12:33:27.988Z,2.60
2022-08-17T12:36:08.052Z,2.65
2022-08-17T12:38:36.844Z,2.50
2022-08-17T12:41:06.267Z,2.78
2022-08-17T12:43:32.604Z,2.67
2022-08-17T12:46:00.925Z,2.92
2022-08-17T12:48:59.280Z,2.60
2022-08-17T12:51:27.066Z,2.80
2022-08-17T12:53:55.042Z,3.17
2022-08-17T12:56:21.544Z,2.67
2022-08-17T12:58:51.200Z,2.53
2022-08-17T13:01:17.886Z,3.15
2022-08-17T13:03:48.122Z,3.53
2022-08-17T13:06:27.456Z,3.08
2022-08-17T13:08:53.940Z,3.10
2022-08-17T13:11:23.441Z,2.78
2022-08-17T13:13:55.289Z,2.67
2022-08-17T13:16:31.010Z,2.20
2022-08-17T13:19:14.888Z,2.70
2022-08-17T13:22:01.330Z,2.57
2022-08-17T13:24:37.819Z,3.00
2022-08-17T13:29:51.195Z,2.78
2022-08-17T13:32:34.490Z,3.00
2022-08-17T13:35:15.572Z,2.90
2022-08-17T13:38:06.504Z,2.65
2022-08-17T13:40:44.361Z,3.03
2022-08-17T13:43:11.424Z,2.92
2022-08-17T13:45:45.971Z,3.00
2022-08-17T13:48:27.807Z,2.60
2022-08-17T13:50:54.086Z,2.83
2022-08-17T13:53:32.834Z,2.88
2022-08-17T13:56:03.899Z,3.00
2022-08-17T13:58:36.796Z,2.67
2022-08-17T14:01:32.550Z,3.08
2022-08-17T14:04:01.462Z,2.75
2022-08-17T14:06:53.287Z,2.45
2022-08-17T14:09:20.463Z,2.63
2022-08-17T14:11:48.974Z,2.65
2022-08-17T14:14:16.539Z,2.67
2022-08-17T14:16:42.881Z,2.75
2022-08-17T14:19:11.258Z,2.75
2022-08-17T14:21:38.453Z,2.67
2022-08-17T14:24:09.655Z,3.22
2022-08-17T14:26:36.091Z,3.58
2022-08-17T14:29:02.449Z,3.35
2022-08-17T14:31:29.665Z,3.08
2022-08-17T14:33:58.226Z,2.90
2022-08-17T14:36:25.607Z,3.10
2022-08-17T14:38:51.956Z,3.67
2022-08-17T14:41:22.063Z,3.00
2022-08-17T14:43:49.483Z,3.15
2022-08-17T14:46:15.877Z,3.10
2022-08-17T14:48:42.215Z,3.30
2022-08-17T14:51:08.671Z,3.03
2022-08-17T14:53:35.034Z,2.83
2022-08-17T14:56:01.366Z,2.90
2022-08-17T14:58:27.766Z,2.95
2022-08-17T15:00:54.119Z,3.30
2022-08-17T15:03:20.503Z,2.92
2022-08-17T15:05:46.849Z,2.53
2022-08-17T15:08:13.207Z,3.13
2022-08-17T15:10:39.529Z,3.25
2022-08-17T15:13:20.568Z,3.10
2022-08-17T15:15:48.013Z,3.00
2022-08-17T15:18:15.172Z,3.00
2022-08-17T15:20:42.758Z,2.92
2022-08-17T15:23:12.644Z,2.85
2022-08-17T15:25:39.189Z,2.85
2022-08-17T15:28:05.553Z,3.00
2022-08-17T15:30:31.952Z,3.13
2022-08-17T15:33:02.503Z,3.28
2022-08-17T15:35:33.061Z,3.00
2022-08-17T15:38:11.306Z,2.95
2022-08-17T15:40:41.784Z,2.80
2022-08-17T15:43:27.300Z,2.78
2022-08-17T15:46:03.507Z,2.92
2022-08-17T15:48:31.779Z,3.03
2022-08-17T15:50:58.121Z,2.92
2022-08-17T15:53:24.453Z,2.90
2022-08-17T15:55:50.767Z,2.80
2022-08-17T15:58:19.317Z,2.58
2022-08-17T16:00:53.482Z,2.83
2022-08-17T16:03:59.335Z,2.78
2022-08-17T16:06:20.228Z,2.67
2022-08-17T16:08:46.631Z,2.88
2022-08-17T16:11:15.947Z,2.45
2022-08-17T16:13:43.269Z,2.40
2022-08-17T16:16:20.996Z,2.30
2022-08-17T16:18:47.319Z,2.63
2022-08-17T16:21:20.933Z,2.83
2022-08-17T16:23:49.040Z,2.63
2022-08-17T16:26:15.911Z,2.53
2022-08-17T16:28:42.268Z,2.72
2022-08-17T16:31:09.335Z,3.05
2022-08-17T16:33:37.475Z,2.60
2022-08-17T16:36:04.111Z,2.60
2022-08-17T16:38:30.441Z,3.10
2022-08-17T16:40:56.852Z,2.70
2022-08-17T16:43:23.199Z,2.60
2022-08-17T16:45:52.133Z,2.15
2022-08-17T16:48:18.710Z,2.40
2022-08-17T16:51:02.840Z,2.60
2022-08-17T16:53:29.963Z,2.75
2022-08-17T16:55:56.386Z,3.28
2022-08-17T16:58:22.727Z,2.92
2022-08-17T17:00:49.161Z,2.60
2022-08-17T17:03:20.667Z,2.40
2022-08-17T17:06:06.483Z,2.40
2022-08-17T17:08:44.572Z,2.40
2022-08-17T17:11:15.768Z,2.40
2022-08-17T17:13:55.681Z,3.10
2022-08-17T17:16:37.179Z,2.28
2022-08-17T17:19:16.059Z,2.80
2022-08-17T17:22:01.650Z,2.53
2022-08-17T17:24:41.289Z,2.70
2022-08-17T17:27:20.053Z,2.40
2022-08-17T17:29:59.229Z,2.40
2022-08-17T17:32:39.007Z,2.28
2022-08-17T17:35:10.616Z,2.40
2022-08-17T17:37:39.654Z,2.40
2022-08-17T17:40:40.188Z,2.78
2022-08-17T17:43:37.134Z,2.40
2022-08-17T17:46:26.817Z,2.50
2022-08-17T17:48:54.365Z,2.90
2022-08-17T17:51:58.156Z,3.00
2022-08-17T17:54:39.161Z,2.97
2022-08-17T17:57:34.178Z,2.45
2022-08-17T18:00:09.868Z,2.92
2022-08-17T18:03:17.416Z,3.30
2022-08-17T18:06:02.194Z,3.45
2022-08-17T18:08:32.155Z,3.97
2022-08-17T18:11:24.048Z,3.22
2022-08-17T18:14:24.088Z,3.40
2022-08-17T18:16:56.378Z,3.58
2022-08-17T18:19:25.033Z,3.78
2022-08-17T18:21:58.943Z,3.30
2022-08-17T18:24:36.372Z,3.20
2022-08-17T18:27:18.339Z,3.50
2022-08-17T18:29:46.875Z,3.20
2022-08-17T18:32:19.603Z,3.28
2022-08-17T18:34:48.868Z,3.10
2022-08-17T18:37:41.584Z,3.97
2022-08-17T18:40:17.013Z,3.20
2022-08-17T18:43:13.230Z,3.42
2022-08-17T18:45:42.385Z,3.13
2022-08-17T18:48:20.329Z,3.70
2022-08-17T18:50:47.335Z,3.90
2022-08-17T18:53:33.192Z,4.03
2022-08-17T18:56:20.429Z,3.33
2022-08-17T18:59:11.644Z,3.70
2022-08-17T19:01:53.555Z,3.08
2022-08-17T19:04:35.294Z,3.22
2022-08-17T19:07:06.354Z,3.20
2022-08-17T19:09:38.234Z,3.20
2022-08-17T19:12:08.490Z,4.90
2022-08-17T19:14:35.825Z,5.70
2022-08-17T19:17:36.391Z,6.93
2022-08-17T19:20:10.479Z,7.78
2022-08-17T19:22:44.548Z,8.07
2022-08-17T19:25:17.192Z,7.50
2022-08-17T19:27:57.331Z,9.65
2022-08-17T19:30:24.246Z,8.35
2022-08-17T19:32:50.770Z,7.65
2022-08-17T19:35:19.396Z,8.25
2022-08-17T19:38:01.682Z,8.63
2022-08-17T19:40:53.251Z,9.60
2022-08-17T19:43:27.206Z,8.88
2022-08-17T19:46:20.894Z,8.45
2022-08-17T19:49:15.763Z,10.25
2022-08-17T19:51:52.267Z,10.35
2022-08-17T19:54:37.138Z,10.07
2022-08-17T19:57:15.200Z,13.25
2022-08-17T20:00:04.506Z,13.15
2022-08-17T20:02:30.811Z,15.27
2022-08-17T20:05:02.844Z,12.57
2022-08-17T20:07:42.623Z,11.60
2022-08-17T20:10:20.399Z,16.83
2022-08-17T20:12:50.891Z,14.48
2022-08-17T20:15:28.248Z,14.38
2022-08-17T20:17:58.771Z,15.40
2022-08-17T20:20:43.470Z,14.75
2022-08-17T20:23:28.434Z,16.80
2022-08-17T20:26:03.621Z,15.52
2022-08-17T20:28:34.009Z,14.77
2022-08-17T20:31:02.359Z,13.98
2022-08-17T20:33:34.287Z,19.02
2022-08-17T20:36:21.819Z,17.65
2022-08-17T20:38:55.775Z,18.80
2022-08-17T20:41:23.316Z,15.77
2022-08-17T20:44:10.002Z,16.70
2022-08-17T20:46:36.296Z,15.02
2022-08-17T20:49:08.518Z,15.90
2022-08-17T20:52:01.371Z,16.15
2022-08-17T20:54:52.272Z,17.48
2022-08-17T20:57:46.090Z,18.17
2022-08-17T21:00:32.401Z,17.95
2022-08-17T21:03:20.531Z,18.27
2022-08-17T21:06:00.223Z,21.13
2022-08-17T21:09:04.508Z,20.35
2022-08-17T21:12:02.398Z,22.83
2022-08-17T21:14:41.480Z,23.60
2022-08-17T21:17:42.870Z,23.40
2022-08-17T21:20:40.585Z,25.30
2022-08-17T21:23:33.057Z,23.25
2022-08-17T21:26:20.667Z,30.55
2022-08-17T21:29:29.847Z,24.05
2022-08-17T21:32:14.728Z,27.30
2022-08-17T21:35:07.034Z,29.17
2022-08-17T21:37:42.498Z,29.02
2022-08-17T21:40:15.015Z,25.85
2022-08-17T21:42:51.369Z,26.48
2022-08-17T21:45:23.532Z,30.58
2022-08-17T21:48:06.019Z,30.67
2022-08-17T21:50:32.501Z,30.75
2022-08-17T21:53:00.865Z,29.63
2022-08-17T21:55:31.367Z,32.78
2022-08-17T21:58:13.341Z,34.92
2022-08-17T22:00:42.282Z,37.25
2022-08-17T22:03:23.258Z,38.53
2022-08-17T22:05:49.597Z,36.85
2022-08-17T22:08:22.174Z,36.50
2022-08-17T22:10:50.615Z,36.97
2022-08-17T22:13:17.594Z,37.30
2022-08-17T22:15:49.952Z,33.22
2022-08-17T22:18:26.770Z,37.90
2022-08-17T22:20:55.833Z,36.83
2022-08-17T22:23:28.325Z,38.10
2022-08-17T22:26:05.215Z,39.50
2022-08-17T22:28:58.232Z,37.47
2022-08-17T22:31:30.238Z,40.40
2022-08-17T22:33:59.411Z,43.42
2022-08-17T22:36:34.911Z,45.70
2022-08-17T22:39:21.182Z,44.53
2022-08-17T22:41:47.450Z,45.25
2022-08-17T22:44:15.515Z,47.92
2022-08-17T22:46:54.113Z,49.17
2022-08-17T22:49:54.146Z,51.78
2022-08-17T22:52:43.126Z,51.63
2022-08-17T22:55:17.569Z,54.65
2022-08-17T22:57:47.487Z,52.35
2022-08-17T23:00:41.723Z,51.05
2022-08-17T23:03:13.165Z,50.90
2022-08-17T23:05:43.741Z,49.67
2022-08-17T23:08:10.639Z,48.53
2022-08-17T23:10:37.181Z,51.08
2022-08-17T23:13:03.903Z,49.78
2022-08-17T23:15:30.311Z,51.00
2022-08-17T23:17:56.635Z,52.03
2022-08-17T23:20:22.987Z,53.90
2022-08-17T23:22:52.355Z,55.75
2022-08-17T23:25:26.200Z,55.75
2022-08-17T23:27:52.833Z,53.35
2022-08-17T23:30:19.414Z,53.35
2022-08-17T23:32:53.833Z,51.80
2022-08-17T23:35:20.996Z,53.25
2022-08-17T23:38:10.566Z,51.95
2022-08-17T23:40:37.806Z,48.00
2022-08-17T23:43:11.463Z,49.35
2022-08-17T23:45:50.193Z,46.03
2022-08-17T23:48:28.631Z,46.35
2022-08-17T23:51:07.665Z,48.40
2022-08-17T23:53:34.704Z,45.78
2022-08-17T23:56:09.030Z,46.65
2022-08-17T23:58:37.716Z,47.30
